createdAt,value
2019-03-03T00:04:21.881Z,99928.78
2019-03-03T00:09:23.926Z,99918.88
2019-03-03T00:14:25.968Z,99925.08
2019-03-03T00:19:28.051Z,99928.16
2019-03-03T00:24:30.127Z,99931.05
2019-03-03T00:29:32.179Z,99930.69
2019-03-03T00:34:34.248Z,99933.45
2019-03-03T00:39:49.421Z,99926.52
2019-03-03T00:45:00.972Z,99919.35
2019-03-03T00:50:17.446Z,99909.10
2019-03-03T00:55:37.881Z,99904.03
2019-03-03T01:00:47.413Z,99905.27
2019-03-03T01:06:03.809Z,99897.02
2019-03-03T01:11:19.109Z,99891.78
2019-03-03T01:16:38.038Z,99886.41
2019-03-03T01:21:59.732Z,99886.99
2019-03-03T01:27:01.845Z,99880.69
2019-03-03T01:32:04.122Z,99881.23
2019-03-03T01:37:08.581Z,99873.84
2019-03-03T01:42:10.693Z,99883.78
2019-03-03T01:47:12.786Z,99881.16
2019-03-03T01:52:14.853Z,99870.05
2019-03-03T01:57:16.992Z,99855.50
2019-03-03T02:02:19.300Z,99863.56
2019-03-03T02:07:21.474Z,99861.91
2019-03-03T02:12:23.503Z,99864.61
2019-03-03T02:17:25.584Z,99864.30
2019-03-03T02:22:27.651Z,99865.31
2019-03-03T02:27:29.753Z,99865.14
2019-03-03T02:32:31.789Z,99868.80
2019-03-03T02:37:33.870Z,99860.34
2019-03-03T02:42:38.041Z,99855.97
2019-03-03T02:47:40.135Z,99846.94
2019-03-03T02:52:42.493Z,99844.21
2019-03-03T02:57:44.577Z,99849.12
2019-03-03T03:03:06.922Z,99848.81
2019-03-03T03:08:11.659Z,99845.25
2019-03-03T03:13:51.591Z,99850.89
2019-03-03T03:19:22.151Z,99847.19
2019-03-03T03:24:49.968Z,99848.74
2019-03-03T03:30:10.598Z,99841.41
2019-03-03T03:35:18.184Z,99840.77
2019-03-03T03:40:42.536Z,99840.11
2019-03-03T03:46:03.086Z,99832.34
2019-03-03T03:51:27.203Z,99822.84
2019-03-03T03:56:47.294Z,99823.48
2019-03-03T04:02:08.992Z,99826.40
2019-03-03T04:07:27.147Z,99816.02
2019-03-03T04:13:06.828Z,99804.30
2019-03-03T04:18:33.664Z,99798.55
2019-03-03T04:23:46.375Z,99800.75
2019-03-03T04:29:06.730Z,99783.94
2019-03-03T04:34:17.585Z,99773.23
2019-03-03T04:39:45.935Z,99766.95
2019-03-03T04:45:19.717Z,99758.86
2019-03-03T04:50:42.772Z,99766.53
2019-03-03T04:56:04.455Z,99750.47
2019-03-03T05:01:44.283Z,99747.23
2019-03-03T05:07:08.650Z,99740.38
2019-03-03T05:12:44.204Z,99737.98
2019-03-03T05:17:54.087Z,99733.27
2019-03-03T05:22:56.126Z,99725.29
2019-03-03T05:27:58.160Z,99722.81
2019-03-03T05:33:00.133Z,99729.89
2019-03-03T05:38:02.284Z,99721.36
2019-03-03T05:43:04.373Z,99722.50
2019-03-03T05:48:06.552Z,99711.54
2019-03-03T05:53:08.631Z,99703.91
2019-03-03T05:58:10.747Z,99706.48
2019-03-03T06:03:12.813Z,99709.55
2019-03-03T06:08:14.871Z,99690.66
2019-03-03T06:13:16.854Z,99687.38
2019-03-03T06:18:18.911Z,99694.34
2019-03-03T06:23:20.948Z,99678.73
2019-03-03T06:28:23.084Z,99681.69
2019-03-03T06:33:25.191Z,99684.62
2019-03-03T06:38:27.281Z,99692.17
2019-03-03T06:43:29.357Z,99692.20
2019-03-03T06:48:31.422Z,99698.77
2019-03-03T06:53:33.484Z,99699.97
2019-03-03T06:58:35.576Z,99697.73
2019-03-03T07:03:37.658Z,99695.62
2019-03-03T07:08:39.742Z,99696.00
2019-03-03T07:13:41.859Z,99694.55
2019-03-03T07:18:43.940Z,99697.55
2019-03-03T07:23:46.020Z,99689.70
2019-03-03T07:28:48.255Z,99690.94
2019-03-03T07:33:55.820Z,99696.27
2019-03-03T07:38:57.959Z,99694.37
2019-03-03T07:44:00.077Z,99684.22
2019-03-03T07:49:02.174Z,99671.31
2019-03-03T07:54:04.199Z,99680.87
2019-03-03T07:59:06.295Z,99680.28
2019-03-03T08:04:08.393Z,99680.29
2019-03-03T08:09:10.553Z,99676.40
2019-03-03T08:14:12.667Z,99677.05
2019-03-03T08:19:14.738Z,99678.36
2019-03-03T08:24:16.839Z,99683.62
2019-03-03T08:29:18.899Z,99673.26
2019-03-03T08:34:20.942Z,99679.03
2019-03-03T08:39:23.043Z,99675.61
2019-03-03T08:44:45.146Z,99669.09
2019-03-03T08:49:58.199Z,99664.67
2019-03-03T08:55:31.618Z,99667.64
2019-03-03T09:00:39.367Z,99670.13
2019-03-03T09:06:16.227Z,99675.70
2019-03-03T09:11:46.526Z,99671.27
2019-03-03T09:17:18.219Z,99663.73
2019-03-03T09:22:39.899Z,99659.80
2019-03-03T09:28:04.446Z,99638.75
2019-03-03T09:33:26.820Z,99637.43
2019-03-03T09:38:36.839Z,99638.55
2019-03-03T09:43:58.549Z,99637.91
2019-03-03T09:49:17.251Z,99634.61
2019-03-03T09:54:27.312Z,99644.11
2019-03-03T09:59:52.220Z,99644.77
2019-03-03T10:05:06.198Z,99637.69
2019-03-03T10:10:38.590Z,99632.94
2019-03-03T10:15:48.278Z,99638.38
2019-03-03T10:21:08.645Z,99644.94
2019-03-03T10:26:24.084Z,99641.63
2019-03-03T10:31:57.931Z,99634.41
2019-03-03T10:37:27.023Z,99640.01
2019-03-03T10:42:39.022Z,99640.14
2019-03-03T10:48:12.507Z,99639.81
2019-03-03T10:53:29.038Z,99643.08
2019-03-03T10:59:08.763Z,99653.62
2019-03-03T11:04:48.427Z,99647.73
2019-03-03T11:10:01.731Z,99638.18
2019-03-03T11:15:33.778Z,99626.48
2019-03-03T11:20:46.261Z,99628.75
2019-03-03T11:26:26.100Z,99621.31
2019-03-03T11:31:53.125Z,99624.43
2019-03-03T11:37:06.659Z,99623.92
2019-03-03T11:42:15.977Z,99611.62
2019-03-03T11:47:36.296Z,99610.34
2019-03-03T11:53:00.553Z,99607.85
2019-03-03T11:58:17.016Z,99605.10
2019-03-03T12:03:47.059Z,99600.55
2019-03-03T12:09:07.209Z,99603.55
2019-03-03T12:14:17.781Z,99603.91
2019-03-03T12:19:37.082Z,99599.32
2019-03-03T12:24:58.794Z,99604.09
2019-03-03T12:30:09.679Z,99606.72
2019-03-03T12:35:40.297Z,99597.36
2019-03-03T12:40:55.298Z,99594.39
2019-03-03T12:46:15.618Z,99601.62
2019-03-03T12:51:37.328Z,99593.75
2019-03-03T12:56:54.523Z,99588.16
2019-03-03T13:02:13.853Z,99584.54
2019-03-03T13:07:34.176Z,99575.66
2019-03-03T13:12:54.215Z,99567.80
2019-03-03T13:18:07.026Z,99559.76
2019-03-03T13:23:34.285Z,99554.98
2019-03-03T13:28:58.882Z,99549.40
2019-03-03T13:34:16.088Z,99541.48
2019-03-03T13:39:37.763Z,99539.22
2019-03-03T13:44:39.854Z,99530.83
2019-03-03T13:49:41.931Z,99529.82
2019-03-03T13:54:43.972Z,99521.75
2019-03-03T13:59:46.074Z,99521.59
2019-03-03T14:04:48.095Z,99514.53
2019-03-03T14:09:50.141Z,99509.44
2019-03-03T14:14:52.182Z,99508.44
2019-03-03T14:19:54.346Z,99497.59
2019-03-03T14:24:56.501Z,99502.19
2019-03-03T14:29:58.560Z,99491.66
2019-03-03T14:35:00.591Z,99493.30
2019-03-03T14:40:03.381Z,99486.73
2019-03-03T14:45:06.188Z,99481.41
2019-03-03T14:50:11.378Z,99487.38
2019-03-03T14:55:14.892Z,99477.70
2019-03-03T15:00:31.852Z,99483.11
2019-03-03T15:05:34.040Z,99475.70
2019-03-03T15:10:38.568Z,99468.45
2019-03-03T15:15:40.668Z,99466.63
2019-03-03T15:20:42.687Z,99462.88
2019-03-03T15:25:44.748Z,99455.92
2019-03-03T15:30:46.901Z,99465.50
2019-03-03T15:35:50.701Z,99458.63
2019-03-03T15:40:53.092Z,99465.39
2019-03-03T15:46:00.566Z,99465.20
2019-03-03T15:51:02.809Z,99454.20
2019-03-03T15:56:04.911Z,99454.55
2019-03-03T16:01:12.481Z,99441.75
2019-03-03T16:06:15.071Z,99438.64
2019-03-03T16:11:17.407Z,99428.90
2019-03-03T16:16:19.493Z,99416.30
2019-03-03T16:21:21.557Z,99408.09
2019-03-03T16:26:23.607Z,99405.96
2019-03-03T16:31:25.664Z,99399.25
2019-03-03T16:36:27.688Z,99386.78
2019-03-03T16:41:29.763Z,99381.38
2019-03-03T16:46:31.896Z,99382.88
2019-03-03T16:51:33.966Z,99370.08
2019-03-03T16:56:36.048Z,99364.52
2019-03-03T17:01:38.158Z,99348.42
2019-03-03T17:06:40.315Z,99335.49
2019-03-03T17:11:42.423Z,99338.61
2019-03-03T17:16:44.515Z,99336.53
2019-03-03T17:21:46.585Z,99343.70
2019-03-03T17:26:48.606Z,99366.53
2019-03-03T17:31:50.636Z,99364.73
2019-03-03T17:36:52.708Z,99364.59
2019-03-03T17:41:56.088Z,99370.33
2019-03-03T17:46:58.159Z,99374.88
2019-03-03T17:52:00.214Z,99368.17
2019-03-03T17:57:02.373Z,99359.78
2019-03-03T18:02:04.616Z,99348.95
2019-03-03T18:07:06.654Z,99342.03
2019-03-03T18:12:08.783Z,99335.17
2019-03-03T18:17:10.802Z,99323.34
2019-03-03T18:22:12.824Z,99334.69
2019-03-03T18:27:15.094Z,99332.55
2019-03-03T18:32:17.156Z,99326.00
2019-03-03T18:37:19.186Z,99323.37
2019-03-03T18:42:21.422Z,99316.44
2019-03-03T18:47:23.509Z,99310.64
2019-03-03T18:52:25.602Z,99296.95
2019-03-03T18:57:27.662Z,99292.66
2019-03-03T19:02:29.694Z,99287.70
2019-03-03T19:07:31.723Z,99282.28
2019-03-03T19:12:33.815Z,99276.26
2019-03-03T19:17:36.000Z,99259.70
2019-03-03T19:22:39.432Z,99262.83
2019-03-03T19:27:41.484Z,99257.58
2019-03-03T19:32:43.995Z,99250.98
2019-03-03T19:37:46.273Z,99248.20
2019-03-03T19:42:48.338Z,99243.16
2019-03-03T19:47:50.470Z,99235.95
2019-03-03T19:52:52.501Z,99233.86
2019-03-03T19:57:54.578Z,99240.09
2019-03-03T20:02:56.631Z,99239.45
2019-03-03T20:07:58.657Z,99221.59
2019-03-03T20:13:00.818Z,99212.75
2019-03-03T20:18:03.550Z,99201.90
2019-03-03T20:23:05.654Z,99184.35
2019-03-03T20:28:07.673Z,99187.33
2019-03-03T20:33:09.821Z,99195.39
2019-03-03T20:38:11.885Z,99200.10
2019-03-03T20:43:14.076Z,99204.69
2019-03-03T20:48:16.155Z,99192.84
2019-03-03T20:53:19.483Z,99174.98
2019-03-03T20:58:21.731Z,99174.88
2019-03-03T21:03:26.188Z,99163.41
2019-03-03T21:08:28.217Z,99151.41
2019-03-03T21:13:30.241Z,99132.07
2019-03-03T21:18:32.295Z,99138.31
2019-03-03T21:23:34.331Z,99128.16
2019-03-03T21:28:36.392Z,99121.73
2019-03-03T21:33:39.240Z,99113.03
2019-03-03T21:38:41.366Z,99102.84
2019-03-03T21:43:43.627Z,99102.17
2019-03-03T21:48:45.772Z,99097.56
2019-03-03T21:53:47.843Z,99085.95
2019-03-03T21:58:49.940Z,99070.67
2019-03-03T22:03:52.084Z,99062.77
2019-03-03T22:08:54.190Z,99058.15
2019-03-03T22:13:56.367Z,99068.30
2019-03-03T22:18:58.482Z,99064.64
2019-03-03T22:24:00.579Z,99060.69
2019-03-03T22:29:02.819Z,99055.40
2019-03-03T22:34:04.852Z,99060.77
2019-03-03T22:39:07.905Z,99058.09
2019-03-03T22:44:10.088Z,99055.79
2019-03-03T22:49:12.137Z,99055.94
2019-03-03T22:54:14.232Z,99043.41
2019-03-03T22:59:16.306Z,99030.48
2019-03-03T23:04:51.397Z,99025.75
2019-03-03T23:10:25.284Z,99022.43
2019-03-03T23:16:24.601Z,99027.73
2019-03-03T23:22:17.715Z,99020.07
2019-03-03T23:27:19.767Z,99018.00
2019-03-03T23:32:21.888Z,99007.94
2019-03-03T23:37:23.959Z,99005.50
2019-03-03T23:42:26.020Z,98987.33
2019-03-03T23:47:28.077Z,98972.11
2019-03-03T23:52:30.141Z,98969.88
2019-03-03T23:57:32.196Z,98955.17
